sensor_id;sensor_type;location;lat;lon;timestamp;P1;durP1;ratioP1;P2;durP2;ratioP2
26223;SDS011;14820;48.682;8.890;2024-01-06T00:01:03;1.27;;;1.23;;
26223;SDS011;14820;48.682;8.890;2024-01-06T00:03:29;1.52;;;1.42;;
26223;SDS011;14820;48.682;8.890;2024-01-06T00:05:55;0.65;;;0.65;;
26223;SDS011;14820;48.682;8.890;2024-01-06T00:08:20;2.85;;;1.48;;
26223;SDS011;14820;48.682;8.890;2024-01-06T00:10:46;1.85;;;1.38;;
26223;SDS011;14820;48.682;8.890;2024-01-06T00:13:11;1.15;;;1.10;;
26223;SDS011;14820;48.682;8.890;2024-01-06T00:15:37;3.53;;;1.75;;
26223;SDS011;14820;48.682;8.890;2024-01-06T00:18:03;0.98;;;0.98;;
26223;SDS011;14820;48.682;8.890;2024-01-06T00:20:28;0.82;;;0.82;;
26223;SDS011;14820;48.682;8.890;2024-01-06T00:22:54;0.90;;;0.90;;
26223;SDS011;14820;48.682;8.890;2024-01-06T00:25:21;0.93;;;0.93;;
26223;SDS011;14820;48.682;8.890;2024-01-06T00:27:47;0.70;;;0.68;;
26223;SDS011;14820;48.682;8.890;2024-01-06T00:30:13;2.03;;;1.33;;
26223;SDS011;14820;48.682;8.890;2024-01-06T00:32:39;0.77;;;0.77;;
26223;SDS011;14820;48.682;8.890;2024-01-06T00:35:05;1.10;;;1.10;;
26223;SDS011;14820;48.682;8.890;2024-01-06T00:37:31;11.15;;;2.63;;
26223;SDS011;14820;48.682;8.890;2024-01-06T00:39:56;2.58;;;2.35;;
26223;SDS011;14820;48.682;8.890;2024-01-06T00:42:22;2.05;;;1.63;;
26223;SDS011;14820;48.682;8.890;2024-01-06T00:44:48;0.68;;;0.68;;
26223;SDS011;14820;48.682;8.890;2024-01-06T00:47:13;2.58;;;1.88;;
26223;SDS011;14820;48.682;8.890;2024-01-06T00:49:39;3.17;;;2.47;;
26223;SDS011;14820;48.682;8.890;2024-01-06T00:52:05;2.28;;;2.08;;
26223;SDS011;14820;48.682;8.890;2024-01-06T00:54:30;3.42;;;2.15;;
26223;SDS011;14820;48.682;8.890;2024-01-06T00:56:56;2.92;;;1.35;;
26223;SDS011;14820;48.682;8.890;2024-01-06T00:59:22;11.35;;;1.80;;
26223;SDS011;14820;48.682;8.890;2024-01-06T01:01:48;0.50;;;0.50;;
26223;SDS011;14820;48.682;8.890;2024-01-06T01:04:13;1.35;;;1.10;;
26223;SDS011;14820;48.682;8.890;2024-01-06T01:06:39;0.70;;;0.70;;
26223;SDS011;14820;48.682;8.890;2024-01-06T01:09:04;0.82;;;0.82;;
26223;SDS011;14820;48.682;8.890;2024-01-06T01:11:30;1.50;;;0.90;;
26223;SDS011;14820;48.682;8.890;2024-01-06T01:13:56;0.70;;;0.70;;
26223;SDS011;14820;48.682;8.890;2024-01-06T01:16:21;1.75;;;0.70;;
26223;SDS011;14820;48.682;8.890;2024-01-06T01:18:47;0.70;;;0.70;;
26223;SDS011;14820;48.682;8.890;2024-01-06T01:21:13;0.60;;;0.60;;
26223;SDS011;14820;48.682;8.890;2024-01-06T01:23:39;0.38;;;0.38;;
26223;SDS011;14820;48.682;8.890;2024-01-06T01:26:05;1.05;;;1.02;;
26223;SDS011;14820;48.682;8.890;2024-01-06T01:28:31;1.23;;;1.15;;
26223;SDS011;14820;48.682;8.890;2024-01-06T01:30:57;0.45;;;0.45;;
26223;SDS011;14820;48.682;8.890;2024-01-06T01:33:22;1.27;;;1.05;;
26223;SDS011;14820;48.682;8.890;2024-01-06T01:35:49;0.50;;;0.50;;
26223;SDS011;14820;48.682;8.890;2024-01-06T01:38:14;0.57;;;0.57;;
26223;SDS011;14820;48.682;8.890;2024-01-06T01:40:40;0.88;;;0.88;;
26223;SDS011;14820;48.682;8.890;2024-01-06T01:43:15;0.88;;;0.60;;
26223;SDS011;14820;48.682;8.890;2024-01-06T01:45:41;0.93;;;0.82;;
26223;SDS011;14820;48.682;8.890;2024-01-06T01:48:07;0.40;;;0.40;;
26223;SDS011;14820;48.682;8.890;2024-01-06T01:50:33;0.40;;;0.40;;
26223;SDS011;14820;48.682;8.890;2024-01-06T01:52:59;0.60;;;0.60;;
26223;SDS011;14820;48.682;8.890;2024-01-06T01:55:25;0.60;;;0.60;;
26223;SDS011;14820;48.682;8.890;2024-01-06T01:57:52;1.83;;;1.67;;
26223;SDS011;14820;48.682;8.890;2024-01-06T02:00:18;0.40;;;0.40;;
26223;SDS011;14820;48.682;8.890;2024-01-06T02:02:45;0.70;;;0.70;;
26223;SDS011;14820;48.682;8.890;2024-01-06T02:05:11;0.70;;;0.70;;
26223;SDS011;14820;48.682;8.890;2024-01-06T02:07:37;0.65;;;0.65;;
26223;SDS011;14820;48.682;8.890;2024-01-06T02:10:02;0.63;;;0.63;;
26223;SDS011;14820;48.682;8.890;2024-01-06T02:12:28;0.45;;;0.45;;
26223;SDS011;14820;48.682;8.890;2024-01-06T02:14:54;0.40;;;0.40;;
26223;SDS011;14820;48.682;8.890;2024-01-06T02:17:20;0.40;;;0.40;;
26223;SDS011;14820;48.682;8.890;2024-01-06T02:19:46;0.30;;;0.30;;
26223;SDS011;14820;48.682;8.890;2024-01-06T02:22:12;0.40;;;0.40;;
26223;SDS011;14820;48.682;8.890;2024-01-06T02:24:37;0.43;;;0.43;;
26223;SDS011;14820;48.682;8.890;2024-01-06T02:27:03;0.43;;;0.43;;
26223;SDS011;14820;48.682;8.890;2024-01-06T02:29:29;0.60;;;0.60;;
26223;SDS011;14820;48.682;8.890;2024-01-06T02:31:54;0.40;;;0.40;;
26223;SDS011;14820;48.682;8.890;2024-01-06T02:34:20;0.30;;;0.30;;
26223;SDS011;14820;48.682;8.890;2024-01-06T02:36:46;0.75;;;0.75;;
26223;SDS011;14820;48.682;8.890;2024-01-06T02:39:11;0.38;;;0.38;;
26223;SDS011;14820;48.682;8.890;2024-01-06T02:41:37;0.40;;;0.40;;
26223;SDS011;14820;48.682;8.890;2024-01-06T02:44:03;0.38;;;0.38;;
26223;SDS011;14820;48.682;8.890;2024-01-06T02:46:29;0.30;;;0.30;;
26223;SDS011;14820;48.682;8.890;2024-01-06T02:48:54;0.40;;;0.40;;
26223;SDS011;14820;48.682;8.890;2024-01-06T02:51:20;0.40;;;0.40;;
26223;SDS011;14820;48.682;8.890;2024-01-06T02:53:46;0.32;;;0.32;;
26223;SDS011;14820;48.682;8.890;2024-01-06T02:56:11;0.50;;;0.50;;
26223;SDS011;14820;48.682;8.890;2024-01-06T02:58:37;3.03;;;1.73;;
26223;SDS011;14820;48.682;8.890;2024-01-06T03:01:03;0.40;;;0.40;;
26223;SDS011;14820;48.682;8.890;2024-01-06T03:03:29;0.40;;;0.40;;
26223;SDS011;14820;48.682;8.890;2024-01-06T03:05:55;3.70;;;0.75;;
26223;SDS011;14820;48.682;8.890;2024-01-06T03:08:20;0.50;;;0.50;;
26223;SDS011;14820;48.682;8.890;2024-01-06T03:10:47;0.60;;;0.60;;
26223;SDS011;14820;48.682;8.890;2024-01-06T03:13:13;0.40;;;0.40;;
26223;SDS011;14820;48.682;8.890;2024-01-06T03:15:39;0.50;;;0.50;;
26223;SDS011;14820;48.682;8.890;2024-01-06T03:18:05;0.50;;;0.50;;
26223;SDS011;14820;48.682;8.890;2024-01-06T03:20:30;1.42;;;1.33;;
26223;SDS011;14820;48.682;8.890;2024-01-06T03:22:56;0.52;;;0.52;;
26223;SDS011;14820;48.682;8.890;2024-01-06T03:25:22;0.50;;;0.50;;
26223;SDS011;14820;48.682;8.890;2024-01-06T03:27:47;0.50;;;0.50;;
26223;SDS011;14820;48.682;8.890;2024-01-06T03:30:13;0.40;;;0.40;;
26223;SDS011;14820;48.682;8.890;2024-01-06T03:32:39;0.30;;;0.30;;
26223;SDS011;14820;48.682;8.890;2024-01-06T03:35:05;0.40;;;0.40;;
26223;SDS011;14820;48.682;8.890;2024-01-06T03:37:32;0.40;;;0.40;;
26223;SDS011;14820;48.682;8.890;2024-01-06T03:39:57;0.30;;;0.30;;
26223;SDS011;14820;48.682;8.890;2024-01-06T03:42:23;0.40;;;0.40;;
26223;SDS011;14820;48.682;8.890;2024-01-06T03:44:49;0.40;;;0.40;;
26223;SDS011;14820;48.682;8.890;2024-01-06T03:47:14;0.40;;;0.40;;
26223;SDS011;14820;48.682;8.890;2024-01-06T03:49:40;0.38;;;0.38;;
26223;SDS011;14820;48.682;8.890;2024-01-06T03:52:06;0.32;;;0.32;;
26223;SDS011;14820;48.682;8.890;2024-01-06T03:54:31;0.50;;;0.50;;
26223;SDS011;14820;48.682;8.890;2024-01-06T03:56:57;0.38;;;0.38;;
26223;SDS011;14820;48.682;8.890;2024-01-06T03:59:22;0.45;;;0.45;;
26223;SDS011;14820;48.682;8.890;2024-01-06T04:01:48;0.30;;;0.30;;
26223;SDS011;14820;48.682;8.890;2024-01-06T04:04:14;0.70;;;0.70;;
26223;SDS011;14820;48.682;8.890;2024-01-06T04:06:39;0.40;;;0.40;;
26223;SDS011;14820;48.682;8.890;2024-01-06T04:09:05;0.30;;;0.30;;
26223;SDS011;14820;48.682;8.890;2024-01-06T04:11:31;0.40;;;0.40;;
26223;SDS011;14820;48.682;8.890;2024-01-06T04:13:56;0.40;;;0.40;;
26223;SDS011;14820;48.682;8.890;2024-01-06T04:16:22;0.52;;;0.52;;
26223;SDS011;14820;48.682;8.890;2024-01-06T04:18:48;0.40;;;0.40;;
26223;SDS011;14820;48.682;8.890;2024-01-06T04:21:13;0.30;;;0.30;;
26223;SDS011;14820;48.682;8.890;2024-01-06T04:23:39;0.30;;;0.30;;
26223;SDS011;14820;48.682;8.890;2024-01-06T04:26:05;0.30;;;0.30;;
26223;SDS011;14820;48.682;8.890;2024-01-06T04:28:31;0.40;;;0.40;;
26223;SDS011;14820;48.682;8.890;2024-01-06T04:30:57;0.57;;;0.57;;
26223;SDS011;14820;48.682;8.890;2024-01-06T04:33:23;0.47;;;0.47;;
26223;SDS011;14820;48.682;8.890;2024-01-06T04:35:48;0.63;;;0.63;;
26223;SDS011;14820;48.682;8.890;2024-01-06T04:38:15;0.50;;;0.50;;
26223;SDS011;14820;48.682;8.890;2024-01-06T04:40:41;0.30;;;0.30;;
26223;SDS011;14820;48.682;8.890;2024-01-06T04:43:06;0.60;;;0.60;;
26223;SDS011;14820;48.682;8.890;2024-01-06T04:45:32;0.50;;;0.50;;
26223;SDS011;14820;48.682;8.890;2024-01-06T04:47:58;0.32;;;0.32;;
26223;SDS011;14820;48.682;8.890;2024-01-06T04:50:23;0.40;;;0.40;;
26223;SDS011;14820;48.682;8.890;2024-01-06T04:52:49;0.95;;;0.95;;
26223;SDS011;14820;48.682;8.890;2024-01-06T04:55:14;1.35;;;1.25;;
26223;SDS011;14820;48.682;8.890;2024-01-06T04:57:40;0.40;;;0.40;;
26223;SDS011;14820;48.682;8.890;2024-01-06T05:00:06;0.50;;;0.50;;
26223;SDS011;14820;48.682;8.890;2024-01-06T05:02:32;0.30;;;0.30;;
26223;SDS011;14820;48.682;8.890;2024-01-06T05:04:58;0.47;;;0.47;;
26223;SDS011;14820;48.682;8.890;2024-01-06T05:07:24;0.63;;;0.63;;
26223;SDS011;14820;48.682;8.890;2024-01-06T05:09:49;1.50;;;1.40;;
26223;SDS011;14820;48.682;8.890;2024-01-06T05:12:15;2.70;;;0.75;;
26223;SDS011;14820;48.682;8.890;2024-01-06T05:14:41;0.40;;;0.40;;
26223;SDS011;14820;48.682;8.890;2024-01-06T05:17:06;0.30;;;0.30;;
26223;SDS011;14820;48.682;8.890;2024-01-06T05:19:34;0.52;;;0.52;;
26223;SDS011;14820;48.682;8.890;2024-01-06T05:22:00;0.30;;;0.30;;
26223;SDS011;14820;48.682;8.890;2024-01-06T05:24:25;0.30;;;0.30;;
26223;SDS011;14820;48.682;8.890;2024-01-06T05:26:51;0.30;;;0.30;;
26223;SDS011;14820;48.682;8.890;2024-01-06T05:29:17;0.40;;;0.40;;
26223;SDS011;14820;48.682;8.890;2024-01-06T05:31:42;0.30;;;0.30;;
26223;SDS011;14820;48.682;8.890;2024-01-06T05:34:08;0.40;;;0.40;;
26223;SDS011;14820;48.682;8.890;2024-01-06T05:36:34;0.30;;;0.30;;
26223;SDS011;14820;48.682;8.890;2024-01-06T05:38:59;0.38;;;0.38;;
26223;SDS011;14820;48.682;8.890;2024-01-06T05:41:25;0.40;;;0.40;;
26223;SDS011;14820;48.682;8.890;2024-01-06T05:43:51;0.40;;;0.40;;
26223;SDS011;14820;48.682;8.890;2024-01-06T05:46:26;0.40;;;0.40;;
26223;SDS011;14820;48.682;8.890;2024-01-06T05:48:51;0.40;;;0.40;;
26223;SDS011;14820;48.682;8.890;2024-01-06T05:51:17;0.30;;;0.30;;
26223;SDS011;14820;48.682;8.890;2024-01-06T05:53:43;2.17;;;1.30;;
26223;SDS011;14820;48.682;8.890;2024-01-06T05:56:09;0.30;;;0.30;;
26223;SDS011;14820;48.682;8.890;2024-01-06T05:58:34;0.85;;;0.85;;
26223;SDS011;14820;48.682;8.890;2024-01-06T06:01:00;1.30;;;1.20;;
26223;SDS011;14820;48.682;8.890;2024-01-06T06:03:26;0.35;;;0.35;;
26223;SDS011;14820;48.682;8.890;2024-01-06T06:05:51;0.30;;;0.30;;
26223;SDS011;14820;48.682;8.890;2024-01-06T06:08:18;2.45;;;0.90;;
26223;SDS011;14820;48.682;8.890;2024-01-06T06:10:43;0.40;;;0.40;;
26223;SDS011;14820;48.682;8.890;2024-01-06T06:13:29;0.47;;;0.47;;
26223;SDS011;14820;48.682;8.890;2024-01-06T06:15:55;0.85;;;0.85;;
26223;SDS011;14820;48.682;8.890;2024-01-06T06:18:21;0.40;;;0.40;;
26223;SDS011;14820;48.682;8.890;2024-01-06T06:20:46;0.47;;;0.47;;
26223;SDS011;14820;48.682;8.890;2024-01-06T06:23:12;0.75;;;0.75;;
26223;SDS011;14820;48.682;8.890;2024-01-06T06:25:38;0.40;;;0.40;;
26223;SDS011;14820;48.682;8.890;2024-01-06T06:28:04;0.40;;;0.40;;
26223;SDS011;14820;48.682;8.890;2024-01-06T06:30:30;0.40;;;0.40;;
26223;SDS011;14820;48.682;8.890;2024-01-06T06:32:56;0.30;;;0.30;;
26223;SDS011;14820;48.682;8.890;2024-01-06T06:35:22;0.30;;;0.30;;
26223;SDS011;14820;48.682;8.890;2024-01-06T06:37:48;0.40;;;0.40;;
26223;SDS011;14820;48.682;8.890;2024-01-06T06:40:14;0.40;;;0.40;;
26223;SDS011;14820;48.682;8.890;2024-01-06T06:42:40;0.30;;;0.30;;
26223;SDS011;14820;48.682;8.890;2024-01-06T06:45:06;0.60;;;0.60;;
26223;SDS011;14820;48.682;8.890;2024-01-06T06:47:32;0.55;;;0.55;;
26223;SDS011;14820;48.682;8.890;2024-01-06T06:49:57;0.45;;;0.45;;
26223;SDS011;14820;48.682;8.890;2024-01-06T06:52:23;0.50;;;0.50;;
26223;SDS011;14820;48.682;8.890;2024-01-06T06:54:48;0.40;;;0.40;;
26223;SDS011;14820;48.682;8.890;2024-01-06T06:57:15;0.38;;;0.38;;
26223;SDS011;14820;48.682;8.890;2024-01-06T06:59:40;0.40;;;0.40;;
26223;SDS011;14820;48.682;8.890;2024-01-06T07:02:06;0.38;;;0.38;;
26223;SDS011;14820;48.682;8.890;2024-01-06T07:04:32;0.32;;;0.32;;
26223;SDS011;14820;48.682;8.890;2024-01-06T07:06:58;0.63;;;0.63;;
26223;SDS011;14820;48.682;8.890;2024-01-06T07:09:23;0.50;;;0.50;;
26223;SDS011;14820;48.682;8.890;2024-01-06T07:11:49;0.80;;;0.80;;
26223;SDS011;14820;48.682;8.890;2024-01-06T07:14:15;0.47;;;0.47;;
26223;SDS011;14820;48.682;8.890;2024-01-06T07:16:41;0.38;;;0.38;;
26223;SDS011;14820;48.682;8.890;2024-01-06T07:19:07;0.50;;;0.50;;
26223;SDS011;14820;48.682;8.890;2024-01-06T07:21:33;0.85;;;0.85;;
26223;SDS011;14820;48.682;8.890;2024-01-06T07:23:59;0.40;;;0.40;;
26223;SDS011;14820;48.682;8.890;2024-01-06T07:26:26;0.50;;;0.50;;
26223;SDS011;14820;48.682;8.890;2024-01-06T07:28:52;0.40;;;0.40;;
26223;SDS011;14820;48.682;8.890;2024-01-06T07:31:18;0.50;;;0.50;;
26223;SDS011;14820;48.682;8.890;2024-01-06T07:33:43;1.20;;;1.10;;
26223;SDS011;14820;48.682;8.890;2024-01-06T07:36:09;0.40;;;0.40;;
26223;SDS011;14820;48.682;8.890;2024-01-06T07:38:35;3.20;;;1.35;;
26223;SDS011;14820;48.682;8.890;2024-01-06T07:41:01;0.30;;;0.30;;
26223;SDS011;14820;48.682;8.890;2024-01-06T07:43:29;1.08;;;1.08;;
26223;SDS011;14820;48.682;8.890;2024-01-06T07:45:55;0.70;;;0.70;;
26223;SDS011;14820;48.682;8.890;2024-01-06T07:48:21;1.60;;;1.50;;
26223;SDS011;14820;48.682;8.890;2024-01-06T07:50:47;0.50;;;0.50;;
26223;SDS011;14820;48.682;8.890;2024-01-06T07:53:12;0.98;;;0.65;;
26223;SDS011;14820;48.682;8.890;2024-01-06T07:55:41;0.40;;;0.40;;
26223;SDS011;14820;48.682;8.890;2024-01-06T07:58:07;0.63;;;0.63;;
26223;SDS011;14820;48.682;8.890;2024-01-06T08:00:33;0.68;;;0.68;;
26223;SDS011;14820;48.682;8.890;2024-01-06T08:02:59;0.30;;;0.30;;
26223;SDS011;14820;48.682;8.890;2024-01-06T08:05:25;0.73;;;0.73;;
26223;SDS011;14820;48.682;8.890;2024-01-06T08:07:51;4.78;;;2.40;;
26223;SDS011;14820;48.682;8.890;2024-01-06T08:10:17;2.83;;;2.53;;
26223;SDS011;14820;48.682;8.890;2024-01-06T08:12:42;25.85;;;6.85;;
26223;SDS011;14820;48.682;8.890;2024-01-06T08:15:09;3.88;;;3.58;;
26223;SDS011;14820;48.682;8.890;2024-01-06T08:17:35;2.03;;;1.65;;
26223;SDS011;14820;48.682;8.890;2024-01-06T08:20:02;1.83;;;1.70;;
26223;SDS011;14820;48.682;8.890;2024-01-06T08:22:28;1.73;;;1.25;;
26223;SDS011;14820;48.682;8.890;2024-01-06T08:24:54;2.70;;;1.67;;
26223;SDS011;14820;48.682;8.890;2024-01-06T08:27:19;1.80;;;1.42;;
26223;SDS011;14820;48.682;8.890;2024-01-06T08:29:46;2.63;;;1.27;;
26223;SDS011;14820;48.682;8.890;2024-01-06T08:32:12;4.03;;;1.00;;
26223;SDS011;14820;48.682;8.890;2024-01-06T08:34:39;2.00;;;1.65;;
26223;SDS011;14820;48.682;8.890;2024-01-06T08:37:05;0.60;;;0.60;;
26223;SDS011;14820;48.682;8.890;2024-01-06T08:39:31;0.52;;;0.52;;
26223;SDS011;14820;48.682;8.890;2024-01-06T08:41:57;0.50;;;0.50;;
26223;SDS011;14820;48.682;8.890;2024-01-06T08:44:22;1.23;;;1.20;;
26223;SDS011;14820;48.682;8.890;2024-01-06T08:46:48;1.27;;;1.17;;
26223;SDS011;14820;48.682;8.890;2024-01-06T08:49:14;2.72;;;0.95;;
26223;SDS011;14820;48.682;8.890;2024-01-06T08:51:39;0.40;;;0.40;;
26223;SDS011;14820;48.682;8.890;2024-01-06T08:54:05;0.40;;;0.40;;
26223;SDS011;14820;48.682;8.890;2024-01-06T08:56:34;4.28;;;1.35;;
26223;SDS011;14820;48.682;8.890;2024-01-06T08:58:59;1.35;;;0.98;;
26223;SDS011;14820;48.682;8.890;2024-01-06T09:01:25;0.95;;;0.95;;
26223;SDS011;14820;48.682;8.890;2024-01-06T09:03:51;0.40;;;0.40;;
26223;SDS011;14820;48.682;8.890;2024-01-06T09:06:16;0.40;;;0.40;;
26223;SDS011;14820;48.682;8.890;2024-01-06T09:08:42;0.40;;;0.40;;
26223;SDS011;14820;48.682;8.890;2024-01-06T09:11:08;0.35;;;0.35;;
26223;SDS011;14820;48.682;8.890;2024-01-06T09:13:33;0.65;;;0.65;;
26223;SDS011;14820;48.682;8.890;2024-01-06T09:15:59;0.40;;;0.40;;
26223;SDS011;14820;48.682;8.890;2024-01-06T09:18:28;0.30;;;0.30;;
26223;SDS011;14820;48.682;8.890;2024-01-06T09:20:54;0.40;;;0.40;;
26223;SDS011;14820;48.682;8.890;2024-01-06T09:23:19;0.40;;;0.40;;
26223;SDS011;14820;48.682;8.890;2024-01-06T09:25:46;0.50;;;0.50;;
26223;SDS011;14820;48.682;8.890;2024-01-06T09:28:15;0.40;;;0.40;;
26223;SDS011;14820;48.682;8.890;2024-01-06T09:30:40;0.40;;;0.40;;
26223;SDS011;14820;48.682;8.890;2024-01-06T09:33:06;0.50;;;0.50;;
26223;SDS011;14820;48.682;8.890;2024-01-06T09:35:35;1.98;;;1.05;;
26223;SDS011;14820;48.682;8.890;2024-01-06T09:38:00;0.40;;;0.40;;
26223;SDS011;14820;48.682;8.890;2024-01-06T09:40:26;0.60;;;0.60;;
26223;SDS011;14820;48.682;8.890;2024-01-06T09:42:56;0.47;;;0.47;;
26223;SDS011;14820;48.682;8.890;2024-01-06T09:45:21;0.30;;;0.30;;
26223;SDS011;14820;48.682;8.890;2024-01-06T09:47:48;0.40;;;0.40;;
26223;SDS011;14820;48.682;8.890;2024-01-06T09:50:17;0.52;;;0.52;;
26223;SDS011;14820;48.682;8.890;2024-01-06T09:52:46;0.85;;;0.85;;
26223;SDS011;14820;48.682;8.890;2024-01-06T09:55:21;0.30;;;0.30;;
26223;SDS011;14820;48.682;8.890;2024-01-06T09:57:50;0.32;;;0.32;;
26223;SDS011;14820;48.682;8.890;2024-01-06T10:00:16;0.40;;;0.40;;
26223;SDS011;14820;48.682;8.890;2024-01-06T10:02:43;0.38;;;0.38;;
26223;SDS011;14820;48.682;8.890;2024-01-06T10:05:09;0.32;;;0.32;;
26223;SDS011;14820;48.682;8.890;2024-01-06T10:07:37;0.40;;;0.40;;
26223;SDS011;14820;48.682;8.890;2024-01-06T10:10:02;0.40;;;0.40;;
26223;SDS011;14820;48.682;8.890;2024-01-06T10:12:28;0.30;;;0.30;;
26223;SDS011;14820;48.682;8.890;2024-01-06T10:14:54;0.40;;;0.40;;
26223;SDS011;14820;48.682;8.890;2024-01-06T10:17:20;0.63;;;0.63;;
26223;SDS011;14820;48.682;8.890;2024-01-06T10:19:46;0.75;;;0.75;;
26223;SDS011;14820;48.682;8.890;2024-01-06T10:22:17;0.35;;;0.35;;
26223;SDS011;14820;48.682;8.890;2024-01-06T10:24:43;0.75;;;0.75;;
26223;SDS011;14820;48.682;8.890;2024-01-06T10:27:09;0.45;;;0.45;;
26223;SDS011;14820;48.682;8.890;2024-01-06T10:29:35;0.43;;;0.43;;
26223;SDS011;14820;48.682;8.890;2024-01-06T10:32:01;0.45;;;0.38;;
26223;SDS011;14820;48.682;8.890;2024-01-06T10:34:27;0.90;;;0.90;;
26223;SDS011;14820;48.682;8.890;2024-01-06T10:36:54;0.40;;;0.40;;
26223;SDS011;14820;48.682;8.890;2024-01-06T10:39:20;0.40;;;0.40;;
26223;SDS011;14820;48.682;8.890;2024-01-06T10:41:49;0.40;;;0.40;;
26223;SDS011;14820;48.682;8.890;2024-01-06T10:44:17;0.47;;;0.47;;
26223;SDS011;14820;48.682;8.890;2024-01-06T10:46:44;0.30;;;0.30;;
26223;SDS011;14820;48.682;8.890;2024-01-06T10:49:10;0.43;;;0.43;;
26223;SDS011;14820;48.682;8.890;2024-01-06T10:51:37;0.40;;;0.40;;
26223;SDS011;14820;48.682;8.890;2024-01-06T10:54:03;0.80;;;0.60;;
26223;SDS011;14820;48.682;8.890;2024-01-06T10:56:30;0.55;;;0.55;;
26223;SDS011;14820;48.682;8.890;2024-01-06T10:59:02;0.30;;;0.30;;
26223;SDS011;14820;48.682;8.890;2024-01-06T11:01:28;1.25;;;0.63;;
26223;SDS011;14820;48.682;8.890;2024-01-06T11:03:55;0.45;;;0.45;;
26223;SDS011;14820;48.682;8.890;2024-01-06T11:06:21;0.40;;;0.40;;
26223;SDS011;14820;48.682;8.890;2024-01-06T11:11:43;0.50;;;0.50;;
26223;SDS011;14820;48.682;8.890;2024-01-06T11:14:19;0.68;;;0.68;;
26223;SDS011;14820;48.682;8.890;2024-01-06T11:16:49;0.40;;;0.40;;
26223;SDS011;14820;48.682;8.890;2024-01-06T11:24:56;0.30;;;0.30;;
26223;SDS011;14820;48.682;8.890;2024-01-06T11:27:28;0.47;;;0.47;;
26223;SDS011;14820;48.682;8.890;2024-01-06T11:29:57;0.43;;;0.43;;
26223;SDS011;14820;48.682;8.890;2024-01-06T11:32:28;0.55;;;0.55;;
26223;SDS011;14820;48.682;8.890;2024-01-06T11:35:13;0.68;;;0.68;;
26223;SDS011;14820;48.682;8.890;2024-01-06T11:42:40;0.75;;;0.73;;
26223;SDS011;14820;48.682;8.890;2024-01-06T11:45:09;0.32;;;0.32;;
26223;SDS011;14820;48.682;8.890;2024-01-06T11:47:35;0.60;;;0.60;;
26223;SDS011;14820;48.682;8.890;2024-01-06T11:50:01;0.50;;;0.50;;
26223;SDS011;14820;48.682;8.890;2024-01-06T11:52:31;0.30;;;0.30;;
26223;SDS011;14820;48.682;8.890;2024-01-06T11:54:57;0.30;;;0.30;;
26223;SDS011;14820;48.682;8.890;2024-01-06T11:57:27;3.95;;;1.75;;
26223;SDS011;14820;48.682;8.890;2024-01-06T11:59:54;0.40;;;0.40;;
26223;SDS011;14820;48.682;8.890;2024-01-06T12:02:20;0.40;;;0.40;;
26223;SDS011;14820;48.682;8.890;2024-01-06T12:04:49;0.30;;;0.30;;
26223;SDS011;14820;48.682;8.890;2024-01-06T12:07:18;0.38;;;0.38;;
26223;SDS011;14820;48.682;8.890;2024-01-06T12:09:47;0.60;;;0.60;;
26223;SDS011;14820;48.682;8.890;2024-01-06T12:12:25;0.30;;;0.30;;
26223;SDS011;14820;48.682;8.890;2024-01-06T12:14:50;0.30;;;0.30;;
26223;SDS011;14820;48.682;8.890;2024-01-06T12:17:16;0.30;;;0.30;;
26223;SDS011;14820;48.682;8.890;2024-01-06T12:19:42;0.30;;;0.30;;
26223;SDS011;14820;48.682;8.890;2024-01-06T12:22:10;0.40;;;0.40;;
26223;SDS011;14820;48.682;8.890;2024-01-06T12:24:38;0.40;;;0.40;;
26223;SDS011;14820;48.682;8.890;2024-01-06T12:27:06;0.50;;;0.50;;
26223;SDS011;14820;48.682;8.890;2024-01-06T12:29:34;0.40;;;0.40;;
26223;SDS011;14820;48.682;8.890;2024-01-06T12:32:04;0.30;;;0.30;;
26223;SDS011;14820;48.682;8.890;2024-01-06T12:34:30;0.40;;;0.40;;
26223;SDS011;14820;48.682;8.890;2024-01-06T12:36:55;0.40;;;0.40;;
26223;SDS011;14820;48.682;8.890;2024-01-06T12:39:21;0.35;;;0.35;;
26223;SDS011;14820;48.682;8.890;2024-01-06T12:41:48;0.30;;;0.30;;
26223;SDS011;14820;48.682;8.890;2024-01-06T12:44:15;0.40;;;0.40;;
26223;SDS011;14820;48.682;8.890;2024-01-06T12:46:41;0.30;;;0.30;;
26223;SDS011;14820;48.682;8.890;2024-01-06T12:49:07;0.30;;;0.30;;
26223;SDS011;14820;48.682;8.890;2024-01-06T12:51:33;0.30;;;0.30;;
26223;SDS011;14820;48.682;8.890;2024-01-06T12:53:59;0.30;;;0.30;;
26223;SDS011;14820;48.682;8.890;2024-01-06T12:56:25;0.30;;;0.30;;
26223;SDS011;14820;48.682;8.890;2024-01-06T12:58:51;0.30;;;0.30;;
26223;SDS011;14820;48.682;8.890;2024-01-06T13:01:18;0.68;;;0.68;;
26223;SDS011;14820;48.682;8.890;2024-01-06T13:03:43;0.30;;;0.30;;
26223;SDS011;14820;48.682;8.890;2024-01-06T13:06:09;0.30;;;0.30;;
26223;SDS011;14820;48.682;8.890;2024-01-06T13:08:35;0.30;;;0.30;;
26223;SDS011;14820;48.682;8.890;2024-01-06T13:11:01;0.40;;;0.40;;
26223;SDS011;14820;48.682;8.890;2024-01-06T13:13:28;0.30;;;0.30;;
26223;SDS011;14820;48.682;8.890;2024-01-06T13:15:55;0.40;;;0.40;;
26223;SDS011;14820;48.682;8.890;2024-01-06T13:18:20;0.40;;;0.40;;
26223;SDS011;14820;48.682;8.890;2024-01-06T13:20:46;0.40;;;0.40;;
26223;SDS011;14820;48.682;8.890;2024-01-06T13:23:12;0.40;;;0.40;;
26223;SDS011;14820;48.682;8.890;2024-01-06T13:25:37;0.50;;;0.50;;
26223;SDS011;14820;48.682;8.890;2024-01-06T13:28:06;5.53;;;0.60;;
26223;SDS011;14820;48.682;8.890;2024-01-06T13:30:32;0.40;;;0.40;;
26223;SDS011;14820;48.682;8.890;2024-01-06T13:32:58;0.52;;;0.52;;
26223;SDS011;14820;48.682;8.890;2024-01-06T13:35:24;0.40;;;0.40;;
26223;SDS011;14820;48.682;8.890;2024-01-06T13:37:51;0.30;;;0.30;;
26223;SDS011;14820;48.682;8.890;2024-01-06T13:40:17;0.50;;;0.50;;
26223;SDS011;14820;48.682;8.890;2024-01-06T13:42:48;0.60;;;0.60;;
26223;SDS011;14820;48.682;8.890;2024-01-06T13:45:15;0.40;;;0.40;;
26223;SDS011;14820;48.682;8.890;2024-01-06T13:47:41;0.40;;;0.40;;
26223;SDS011;14820;48.682;8.890;2024-01-06T13:50:09;0.30;;;0.30;;
26223;SDS011;14820;48.682;8.890;2024-01-06T13:52:39;0.60;;;0.60;;
26223;SDS011;14820;48.682;8.890;2024-01-06T13:55:05;0.38;;;0.38;;
26223;SDS011;14820;48.682;8.890;2024-01-06T13:57:31;0.30;;;0.30;;
26223;SDS011;14820;48.682;8.890;2024-01-06T13:59:57;0.40;;;0.40;;
26223;SDS011;14820;48.682;8.890;2024-01-06T14:02:24;0.40;;;0.40;;
26223;SDS011;14820;48.682;8.890;2024-01-06T14:04:50;1.23;;;1.15;;
26223;SDS011;14820;48.682;8.890;2024-01-06T14:07:16;0.40;;;0.40;;
26223;SDS011;14820;48.682;8.890;2024-01-06T14:09:44;0.50;;;0.50;;
26223;SDS011;14820;48.682;8.890;2024-01-06T14:12:10;0.50;;;0.50;;
26223;SDS011;14820;48.682;8.890;2024-01-06T14:14:36;0.30;;;0.30;;
26223;SDS011;14820;48.682;8.890;2024-01-06T14:17:02;0.30;;;0.30;;
26223;SDS011;14820;48.682;8.890;2024-01-06T14:19:28;1.20;;;0.80;;
26223;SDS011;14820;48.682;8.890;2024-01-06T14:21:53;0.38;;;0.38;;
26223;SDS011;14820;48.682;8.890;2024-01-06T14:24:19;0.40;;;0.40;;
26223;SDS011;14820;48.682;8.890;2024-01-06T14:26:52;0.38;;;0.38;;
26223;SDS011;14820;48.682;8.890;2024-01-06T14:29:18;0.38;;;0.38;;
26223;SDS011;14820;48.682;8.890;2024-01-06T14:31:44;0.40;;;0.40;;
26223;SDS011;14820;48.682;8.890;2024-01-06T14:34:10;0.30;;;0.30;;
26223;SDS011;14820;48.682;8.890;2024-01-06T14:36:36;0.75;;;0.75;;
26223;SDS011;14820;48.682;8.890;2024-01-06T14:39:02;0.40;;;0.40;;
26223;SDS011;14820;48.682;8.890;2024-01-06T14:41:31;0.50;;;0.50;;
26223;SDS011;14820;48.682;8.890;2024-01-06T14:43:57;0.40;;;0.40;;
26223;SDS011;14820;48.682;8.890;2024-01-06T14:46:23;0.50;;;0.50;;
26223;SDS011;14820;48.682;8.890;2024-01-06T14:48:49;0.40;;;0.40;;
26223;SDS011;14820;48.682;8.890;2024-01-06T14:51:16;0.30;;;0.30;;
26223;SDS011;14820;48.682;8.890;2024-01-06T14:53:42;0.40;;;0.40;;
26223;SDS011;14820;48.682;8.890;2024-01-06T14:56:08;0.40;;;0.40;;